Terminal Aerodrome Forecast
Issued by NWS

Home | Current Version | Previous Version | Text Only | Print | Product List | Glossary On
Versions: 1 2 3 4 5 6 7 8 9 10 11 12 13 14 15 16 17 18 19 20 21 22 23 24 25 26 27
000
FTUS43 KDLH 271700
TAFHIB
TAF
KHIB 271726Z 2718/2818 VRB03KT P6SM SKC
     FM280100 17005KT P6SM BKN100
     FM280900 14005KT 3SM -SN SCT015 OVC040
     FM281200 13005KT 2SM -SN SCT010 OVC025=

USA.gov is the U.S. government's official web portal to all federal, state and local government web resources and services.